Time;durP1;ratioP1;P1;durP2;ratioP2;P2;SDS_P1;SDS_P2;PMS_P1;PMS_P2;Temp;Humidity;BMP_temperature;BMP_pressure;BME280_temperature;BME280_humidity;BME280_pressure;Samples;Min_cycle;Max_cycle;Signal;HPM_P1;HPM_P2
2021/09/24 00:01:20;;;;;;;19.02;11.32;;;;;;;;;;5011915;28;20065;-68
2021/09/24 00:03:47;;;;;;;19.17;10.80;;;;;;;;;;5012205;28;20053;-69
2021/09/24 00:06:14;;;;;;;18.63;11.32;;;;;;;;;;5012280;28;20046;-69
2021/09/24 00:08:41;;;;;;;18.50;10.32;;;;;;;;;;5012353;28;20081;-68
2021/09/24 00:11:09;;;;;;;18.75;11.18;;;;;;;;;;5012063;28;20438;-68
2021/09/24 00:13:36;;;;;;;21.80;11.75;;;;;;;;;;5011721;28;20050;-68
2021/09/24 00:16:04;;;;;;;20.00;11.75;;;;;;;;;;5012029;28;20058;-68
2021/09/24 00:18:31;;;;;;;17.85;9.85;;;;;;;;;;5011922;28;20053;-68
2021/09/24 00:20:58;;;;;;;24.88;12.82;;;;;;;;;;5012006;28;20049;-68
2021/09/24 00:23:25;;;;;;;19.63;10.50;;;;;;;;;;5011648;28;20431;-69
2021/09/24 00:25:52;;;;;;;18.60;12.38;;;;;;;;;;5011827;28;20064;-69
2021/09/24 00:28:21;;;;;;;19.05;10.80;;;;;;;;;;5011749;28;20058;-69
2021/09/24 00:30:48;;;;;;;25.98;10.73;;;;;;;;;;5011750;28;20050;-68
2021/09/24 00:33:15;;;;;;;18.90;10.73;;;;;;;;;;5011600;28;20126;-68
2021/09/24 00:35:42;;;;;;;18.23;11.48;;;;;;;;;;5012099;28;20518;-68
2021/09/24 00:38:09;;;;;;;18.30;10.95;;;;;;;;;;5011881;28;20054;-68
2021/09/24 00:40:36;;;;;;;19.45;10.43;;;;;;;;;;5011912;28;20470;-68
2021/09/24 00:43:04;;;;;;;20.50;11.40;;;;;;;;;;5011767;28;20136;-68
2021/09/24 00:45:32;;;;;;;17.90;10.63;;;;;;;;;;5011523;28;20050;-68
2021/09/24 00:48:00;;;;;;;19.60;10.88;;;;;;;;;;5015307;28;20077;-68
2021/09/24 00:50:28;;;;;;;18.88;10.65;;;;;;;;;;5015194;28;20133;-68
2021/09/24 00:52:55;;;;;;;19.58;11.27;;;;;;;;;;5015409;28;20068;-69
2021/09/24 00:55:22;;;;;;;20.20;11.52;;;;;;;;;;5008706;28;20054;-68
2021/09/24 00:57:49;;;;;;;19.33;11.50;;;;;;;;;;4995592;28;20142;-68
2021/09/24 01:00:17;;;;;;;19.88;10.82;;;;;;;;;;4995570;28;20050;-68
2021/09/24 01:02:46;;;;;;;19.50;11.02;;;;;;;;;;4995547;28;20057;-68
2021/09/24 01:05:14;;;;;;;18.17;10.80;;;;;;;;;;4995173;28;20133;-69
2021/09/24 01:07:43;;;;;;;19.50;11.15;;;;;;;;;;4995808;28;20550;-69
2021/09/24 01:10:12;;;;;;;17.33;10.35;;;;;;;;;;4995031;28;20133;-68
2021/09/24 01:12:39;;;;;;;18.58;10.95;;;;;;;;;;4995261;28;20046;-68
2021/09/24 01:15:10;;;;;;;16.52;10.07;;;;;;;;;;4995031;28;20153;-69
2021/09/24 01:17:38;;;;;;;19.50;10.95;;;;;;;;;;4995449;28;20137;-68
2021/09/24 01:20:09;;;;;;;18.73;11.48;;;;;;;;;;4995058;28;20062;-68
2021/09/24 01:22:38;;;;;;;17.45;10.02;;;;;;;;;;4995283;28;20125;-68
2021/09/24 01:25:06;;;;;;;19.70;10.10;;;;;;;;;;4994715;28;20391;-68
2021/09/24 01:27:34;;;;;;;16.35;10.00;;;;;;;;;;4995085;28;20073;-68
2021/09/24 01:30:01;;;;;;;17.70;10.73;;;;;;;;;;4994990;28;20046;-68
2021/09/24 01:32:28;;;;;;;19.70;10.48;;;;;;;;;;4994978;28;20057;-68
2021/09/24 01:34:55;;;;;;;19.55;11.18;;;;;;;;;;4995197;28;20054;-68
2021/09/24 01:37:23;;;;;;;19.40;11.93;;;;;;;;;;4994984;28;20133;-68
2021/09/24 01:39:51;;;;;;;18.85;11.40;;;;;;;;;;4995003;28;20054;-68
2021/09/24 01:42:21;;;;;;;16.90;11.20;;;;;;;;;;4994701;28;20050;-68
2021/09/24 01:44:48;;;;;;;20.05;10.93;;;;;;;;;;4994552;28;20050;-68
2021/09/24 01:47:15;;;;;;;16.83;9.88;;;;;;;;;;4994738;28;20046;-68
2021/09/24 01:49:42;;;;;;;19.02;11.13;;;;;;;;;;4994536;28;20061;-67
2021/09/24 01:52:09;;;;;;;19.30;10.88;;;;;;;;;;4994730;28;20137;-68
2021/09/24 01:54:37;;;;;;;19.33;11.07;;;;;;;;;;4994451;28;20137;-68
2021/09/24 01:57:05;;;;;;;20.13;11.23;;;;;;;;;;4994078;28;20043;-68
2021/09/24 01:59:32;;;;;;;22.20;12.77;;;;;;;;;;5015549;22;20054;-66
2021/09/24 02:01:59;;;;;;;21.05;12.05;;;;;;;;;;5013952;28;20054;-66
2021/09/24 02:04:26;;;;;;;19.48;10.80;;;;;;;;;;5013545;28;20050;-66
2021/09/24 02:06:53;;;;;;;17.88;9.88;;;;;;;;;;5013974;28;20465;-66
2021/09/24 02:09:20;;;;;;;18.65;10.07;;;;;;;;;;5013876;28;20498;-66
2021/09/24 02:11:47;;;;;;;19.42;10.98;;;;;;;;;;5013784;28;20075;-66
2021/09/24 02:14:16;;;;;;;18.40;11.10;;;;;;;;;;5013491;28;20546;-66
2021/09/24 02:16:43;;;;;;;18.98;10.85;;;;;;;;;;5013672;28;20085;-66
2021/09/24 02:19:10;;;;;;;19.25;11.13;;;;;;;;;;5013512;28;20054;-67
2021/09/24 02:21:37;;;;;;;19.35;11.23;;;;;;;;;;5013674;28;20569;-66
2021/09/24 02:24:04;;;;;;;16.02;9.73;;;;;;;;;;5013406;28;20129;-67
2021/09/24 02:26:31;;;;;;;18.48;11.02;;;;;;;;;;5013430;28;20144;-67
2021/09/24 02:28:58;;;;;;;18.88;10.35;;;;;;;;;;5013626;28;20046;-66
2021/09/24 02:31:26;;;;;;;19.50;11.27;;;;;;;;;;5013676;28;20053;-67
2021/09/24 02:33:53;;;;;;;20.55;10.18;;;;;;;;;;5014236;28;20060;-67
2021/09/24 02:36:20;;;;;;;19.45;11.27;;;;;;;;;;5013305;28;20045;-67
2021/09/24 02:38:49;;;;;;;18.95;10.52;;;;;;;;;;5013412;28;20050;-68
2021/09/24 02:41:16;;;;;;;19.23;10.63;;;;;;;;;;5013449;28;20513;-67
2021/09/24 02:43:43;;;;;;;19.33;11.63;;;;;;;;;;5013140;28;20442;-68
2021/09/24 02:46:10;;;;;;;16.60;10.35;;;;;;;;;;5013230;28;20054;-68
2021/09/24 02:48:39;;;;;;;17.42;11.15;;;;;;;;;;5013077;28;20056;-67
2021/09/24 02:51:06;;;;;;;21.88;11.02;;;;;;;;;;5012988;28;20132;-66
2021/09/24 02:53:33;;;;;;;18.15;10.57;;;;;;;;;;5013183;28;20510;-67
2021/09/24 02:56:00;;;;;;;19.05;11.43;;;;;;;;;;5012912;28;20053;-66
2021/09/24 02:58:27;;;;;;;18.40;10.85;;;;;;;;;;5012778;28;20057;-67
2021/09/24 03:00:57;;;;;;;19.27;10.65;;;;;;;;;;5012724;28;20057;-67
2021/09/24 03:03:24;;;;;;;17.08;10.40;;;;;;;;;;5013012;28;20056;-67
2021/09/24 03:05:52;;;;;;;20.33;11.43;;;;;;;;;;5012514;28;20050;-67
2021/09/24 03:08:19;;;;;;;19.92;11.45;;;;;;;;;;5012949;28;20054;-67
2021/09/24 03:10:46;;;;;;;18.90;10.50;;;;;;;;;;5012329;28;20049;-67
2021/09/24 03:13:13;;;;;;;19.15;10.45;;;;;;;;;;5012466;28;20138;-68
2021/09/24 03:15:40;;;;;;;17.42;9.95;;;;;;;;;;5012746;28;20525;-67
2021/09/24 03:18:07;;;;;;;17.17;10.32;;;;;;;;;;5012852;28;20501;-66
2021/09/24 03:20:34;;;;;;;17.25;10.13;;;;;;;;;;5012360;28;20136;-67
2021/09/24 03:23:03;;;;;;;17.02;10.13;;;;;;;;;;5012580;28;20050;-66
2021/09/24 03:25:30;;;;;;;16.25;10.15;;;;;;;;;;5012395;28;20053;-67
2021/09/24 03:27:57;;;;;;;18.58;10.75;;;;;;;;;;5012414;28;20061;-66
2021/09/24 03:30:24;;;;;;;19.00;10.45;;;;;;;;;;5012090;28;20056;-66
2021/09/24 03:32:52;;;;;;;18.92;10.98;;;;;;;;;;5012400;28;20053;-67
2021/09/24 03:35:19;;;;;;;21.88;10.95;;;;;;;;;;5011979;28;20046;-66
2021/09/24 03:37:46;;;;;;;19.48;11.65;;;;;;;;;;5012334;28;20046;-67
2021/09/24 03:40:15;;;;;;;19.30;11.05;;;;;;;;;;5012324;28;20050;-67
2021/09/24 03:42:43;;;;;;;17.13;10.20;;;;;;;;;;5012371;28;20050;-67
2021/09/24 03:45:10;;;;;;;14.82;9.00;;;;;;;;;;5012302;28;20251;-67
2021/09/24 03:47:37;;;;;;;17.23;10.43;;;;;;;;;;5012206;28;20551;-67
2021/09/24 03:50:05;;;;;;;18.70;10.85;;;;;;;;;;5012213;28;20056;-69
2021/09/24 03:52:32;;;;;;;18.88;10.75;;;;;;;;;;5012261;28;20132;-67
2021/09/24 03:54:59;;;;;;;19.15;11.73;;;;;;;;;;5011980;28;20054;-67
2021/09/24 03:57:28;;;;;;;17.83;10.57;;;;;;;;;;5011974;28;20128;-67
2021/09/24 03:59:55;;;;;;;20.70;11.52;;;;;;;;;;5011995;28;20509;-67
2021/09/24 04:02:22;;;;;;;18.58;11.68;;;;;;;;;;5012004;28;20128;-68
2021/09/24 04:04:49;;;;;;;20.70;11.73;;;;;;;;;;5011934;28;20049;-67
2021/09/24 04:07:18;;;;;;;17.85;11.25;;;;;;;;;;5011980;28;20081;-67
2021/09/24 04:09:45;;;;;;;20.98;12.75;;;;;;;;;;5012230;28;20116;-67
2021/09/24 04:12:12;;;;;;;19.25;11.63;;;;;;;;;;5012213;28;20467;-67
2021/09/24 04:14:40;;;;;;;20.10;11.68;;;;;;;;;;5012305;28;20049;-67
2021/09/24 04:17:08;;;;;;;17.92;10.48;;;;;;;;;;5011979;28;20046;-67
2021/09/24 04:19:35;;;;;;;18.63;10.63;;;;;;;;;;5011893;28;20052;-67
2021/09/24 04:22:02;;;;;;;18.45;10.27;;;;;;;;;;5013929;28;20049;-67
2021/09/24 04:24:29;;;;;;;18.13;10.20;;;;;;;;;;5015813;28;20510;-67
2021/09/24 04:26:56;;;;;;;18.75;9.75;;;;;;;;;;5015439;28;20081;-67
2021/09/24 04:29:23;;;;;;;17.05;10.23;;;;;;;;;;5015710;28;20129;-67
2021/09/24 04:31:51;;;;;;;19.00;10.95;;;;;;;;;;5015611;28;20066;-67
2021/09/24 04:34:18;;;;;;;17.55;10.38;;;;;;;;;;5015266;28;20128;-67
2021/09/24 04:36:45;;;;;;;17.65;10.13;;;;;;;;;;5015467;28;20042;-67
2021/09/24 04:39:12;;;;;;;18.23;10.00;;;;;;;;;;5015410;28;20566;-66
2021/09/24 04:41:39;;;;;;;17.60;9.75;;;;;;;;;;5015243;28;20060;-67
2021/09/24 04:44:06;;;;;;;17.70;10.88;;;;;;;;;;5015280;28;20128;-66
2021/09/24 04:46:33;;;;;;;16.98;10.60;;;;;;;;;;5015391;28;20060;-66
2021/09/24 04:49:02;;;;;;;16.83;9.82;;;;;;;;;;5015256;28;20133;-67
2021/09/24 04:51:29;;;;;;;17.45;10.18;;;;;;;;;;5015175;28;20080;-67
2021/09/24 04:53:56;;;;;;;18.13;10.02;;;;;;;;;;5015240;28;20068;-67
2021/09/24 04:56:23;;;;;;;20.52;10.93;;;;;;;;;;5015306;28;20476;-67
2021/09/24 04:58:50;;;;;;;15.55;9.18;;;;;;;;;;5015091;28;20491;-67
2021/09/24 05:01:17;;;;;;;17.45;9.95;;;;;;;;;;5015055;28;20418;-67
2021/09/24 05:03:44;;;;;;;17.60;10.18;;;;;;;;;;5014887;28;20499;-68
2021/09/24 05:06:12;;;;;;;18.15;10.35;;;;;;;;;;5016118;28;20056;-68
2021/09/24 05:08:39;;;;;;;21.05;10.18;;;;;;;;;;5015289;28;20499;-67
2021/09/24 05:11:06;;;;;;;19.65;10.40;;;;;;;;;;5015250;28;20050;-68
2021/09/24 05:13:34;;;;;;;21.30;11.00;;;;;;;;;;5014911;28;20096;-67
2021/09/24 05:16:01;;;;;;;18.25;10.20;;;;;;;;;;5015041;28;20422;-67
2021/09/24 05:18:28;;;;;;;20.10;10.15;;;;;;;;;;5014867;28;20491;-67
2021/09/24 05:20:55;;;;;;;18.98;10.77;;;;;;;;;;5015001;28;20475;-67
2021/09/24 05:23:23;;;;;;;18.40;10.05;;;;;;;;;;5014576;28;20056;-66
2021/09/24 05:25:51;;;;;;;18.48;10.85;;;;;;;;;;5014567;28;20452;-67
2021/09/24 05:28:18;;;;;;;18.70;10.15;;;;;;;;;;5014635;28;20053;-66
2021/09/24 05:30:45;;;;;;;17.75;10.38;;;;;;;;;;5014440;28;20060;-67
2021/09/24 05:33:12;;;;;;;22.45;11.30;;;;;;;;;;5014338;28;20054;-65
2021/09/24 05:35:39;;;;;;;18.35;9.70;;;;;;;;;;5014610;28;20046;-66
2021/09/24 05:38:06;;;;;;;18.80;9.13;;;;;;;;;;5014288;28;20098;-66
2021/09/24 05:40:34;;;;;;;19.45;11.65;;;;;;;;;;5014319;28;20046;-67
2021/09/24 05:43:01;;;;;;;17.77;10.23;;;;;;;;;;5014179;28;20058;-67
2021/09/24 05:45:28;;;;;;;18.10;10.45;;;;;;;;;;5014024;28;20140;-67
2021/09/24 05:47:55;;;;;;;18.27;10.85;;;;;;;;;;5014428;28;20046;-67
2021/09/24 05:50:23;;;;;;;18.45;11.25;;;;;;;;;;5014224;28;20093;-68
2021/09/24 05:52:52;;;;;;;17.33;9.35;;;;;;;;;;5014131;28;20054;-68
2021/09/24 05:55:20;;;;;;;19.73;11.15;;;;;;;;;;5008137;28;20046;-68
2021/09/24 05:57:50;;;;;;;18.10;10.90;;;;;;;;;;4994468;28;20129;-67
2021/09/24 06:00:19;;;;;;;16.35;9.68;;;;;;;;;;4994432;28;20415;-67
2021/09/24 06:02:47;;;;;;;17.25;10.40;;;;;;;;;;4994547;28;20499;-68
2021/09/24 06:05:14;;;;;;;19.58;10.88;;;;;;;;;;4994461;28;20150;-68
2021/09/24 06:07:43;;;;;;;18.02;10.38;;;;;;;;;;4994254;28;20056;-67
2021/09/24 06:10:12;;;;;;;19.50;10.57;;;;;;;;;;4993995;28;20050;-67
2021/09/24 06:12:40;;;;;;;20.50;11.18;;;;;;;;;;4994201;28;20245;-68
2021/09/24 06:15:09;;;;;;;17.55;10.68;;;;;;;;;;4994189;28;20050;-67
2021/09/24 06:17:36;;;;;;;19.80;11.15;;;;;;;;;;4994022;28;20138;-67
2021/09/24 06:20:04;;;;;;;23.40;12.35;;;;;;;;;;4994219;28;20046;-67
2021/09/24 06:22:32;;;;;;;18.67;10.85;;;;;;;;;;4993976;28;20046;-67
2021/09/24 06:24:59;;;;;;;18.25;10.18;;;;;;;;;;4993613;28;20148;-67
2021/09/24 06:27:26;;;;;;;21.38;10.93;;;;;;;;;;4993714;28;20049;-67
2021/09/24 06:29:56;;;;;;;19.63;10.35;;;;;;;;;;4994029;28;20085;-68
2021/09/24 06:32:24;;;;;;;18.95;10.93;;;;;;;;;;4993737;28;20128;-67
2021/09/24 06:34:52;;;;;;;18.98;10.32;;;;;;;;;;4993515;28;20149;-67
2021/09/24 06:37:19;;;;;;;19.40;9.90;;;;;;;;;;4993497;28;20089;-67
2021/09/24 06:39:46;;;;;;;17.02;10.25;;;;;;;;;;4993807;28;20507;-67
2021/09/24 06:42:13;;;;;;;18.25;10.35;;;;;;;;;;4993701;28;20423;-68
2021/09/24 06:44:41;;;;;;;18.65;10.10;;;;;;;;;;4992704;28;20118;-67
2021/09/24 06:47:08;;;;;;;17.30;9.68;;;;;;;;;;4993488;28;20138;-67
2021/09/24 06:49:37;;;;;;;17.27;9.85;;;;;;;;;;4993645;28;20046;-67
2021/09/24 06:52:05;;;;;;;18.10;10.80;;;;;;;;;;4993725;28;20514;-67
2021/09/24 06:54:32;;;;;;;20.17;11.13;;;;;;;;;;4993407;28;20049;-67
2021/09/24 06:56:59;;;;;;;18.92;11.15;;;;;;;;;;5012635;28;20049;-68
2021/09/24 06:59:27;;;;;;;21.70;10.88;;;;;;;;;;5012570;28;20129;-67
2021/09/24 07:01:54;;;;;;;16.42;10.20;;;;;;;;;;5010347;28;20057;-67
2021/09/24 07:04:21;;;;;;;19.70;11.32;;;;;;;;;;5010405;28;20088;-68
2021/09/24 07:06:49;;;;;;;20.05;11.05;;;;;;;;;;5011230;28;20547;-67
2021/09/24 07:09:16;;;;;;;16.42;9.23;;;;;;;;;;5010752;28;20145;-68
2021/09/24 07:11:48;;;;;;;18.17;10.70;;;;;;;;;;5010919;28;20530;-67
2021/09/24 07:14:15;;;;;;;15.48;9.48;;;;;;;;;;5010948;28;20124;-67
2021/09/24 07:16:42;;;;;;;17.00;9.55;;;;;;;;;;5010682;28;20045;-67
2021/09/24 07:19:09;;;;;;;19.52;10.82;;;;;;;;;;5010664;28;20046;-67
2021/09/24 07:21:37;;;;;;;16.45;9.60;;;;;;;;;;5010777;28;20052;-67
2021/09/24 07:24:06;;;;;;;19.60;10.68;;;;;;;;;;5010176;28;20061;-66
2021/09/24 07:26:33;;;;;;;18.13;9.90;;;;;;;;;;5010603;28;20057;-67
2021/09/24 07:29:01;;;;;;;16.85;9.38;;;;;;;;;;5010492;28;20078;-67
2021/09/24 07:31:28;;;;;;;17.20;8.93;;;;;;;;;;5010115;28;20050;-67
2021/09/24 07:33:56;;;;;;;19.10;10.27;;;;;;;;;;4997186;28;20068;-67
2021/09/24 07:36:24;;;;;;;16.25;9.25;;;;;;;;;;4993959;28;20054;-67
2021/09/24 07:38:51;;;;;;;17.63;9.23;;;;;;;;;;4990682;28;20060;-66
2021/09/24 07:41:21;;;;;;;16.70;9.27;;;;;;;;;;4990115;28;20133;-66
2021/09/24 07:43:50;;;;;;;17.15;9.50;;;;;;;;;;4990628;28;20142;-66
2021/09/24 07:46:18;;;;;;;15.40;8.63;;;;;;;;;;4991147;28;20097;-66
2021/09/24 07:48:45;;;;;;;16.73;9.45;;;;;;;;;;5004160;28;20061;-67
2021/09/24 07:51:13;;;;;;;13.93;8.50;;;;;;;;;;5011782;28;20148;-66
2021/09/24 07:53:40;;;;;;;15.55;8.38;;;;;;;;;;5011956;28;20413;-68
2021/09/24 07:56:09;;;;;;;16.05;9.02;;;;;;;;;;4998999;28;20054;-67
2021/09/24 07:58:38;;;;;;;16.58;8.73;;;;;;;;;;4992265;28;20061;-67
2021/09/24 08:01:06;;;;;;;15.90;8.48;;;;;;;;;;5046840;23;20470;-86
2021/09/24 08:03:36;;;;;;;15.45;8.88;;;;;;;;;;5034252;28;20051;-88
2021/09/24 08:06:05;;;;;;;18.10;9.68;;;;;;;;;;5015948;28;20136;-87
2021/09/24 08:08:34;;;;;;;16.90;8.38;;;;;;;;;;5033124;28;20064;-86
2021/09/24 08:11:02;;;;;;;14.40;8.63;;;;;;;;;;5035031;28;20050;-88
2021/09/24 08:13:30;;;;;;;16.88;10.05;;;;;;;;;;5039752;28;20056;-86
2021/09/24 08:16:01;;;;;;;16.75;9.63;;;;;;;;;;5037967;28;20041;-88
2021/09/24 08:18:29;;;;;;;16.02;8.10;;;;;;;;;;5034106;28;20073;-88
2021/09/24 08:20:59;;;;;;;16.33;9.57;;;;;;;;;;5034334;28;20053;-87
2021/09/24 08:23:27;;;;;;;15.63;8.60;;;;;;;;;;5033372;28;20480;-87
2021/09/24 08:25:59;;;;;;;13.55;8.65;;;;;;;;;;5033049;28;20122;-87
2021/09/24 08:28:27;;;;;;;14.10;8.13;;;;;;;;;;5033307;28;20052;-86
2021/09/24 08:30:57;;;;;;;14.43;8.43;;;;;;;;;;5032959;28;20569;-87
2021/09/24 08:33:27;;;;;;;13.25;7.63;;;;;;;;;;5032943;28;20520;-86
2021/09/24 08:35:55;;;;;;;13.68;8.38;;;;;;;;;;5033281;28;20076;-87
2021/09/24 08:38:22;;;;;;;21.50;8.30;;;;;;;;;;5033089;28;20045;-87
2021/09/24 08:40:50;;;;;;;13.45;7.63;;;;;;;;;;5033076;28;20052;-87
2021/09/24 08:43:20;;;;;;;12.95;7.72;;;;;;;;;;5032557;28;20118;-87
2021/09/24 08:45:49;;;;;;;13.05;7.40;;;;;;;;;;5033619;28;20053;-87
2021/09/24 08:48:17;;;;;;;13.57;8.10;;;;;;;;;;5032973;28;20077;-87
2021/09/24 08:50:50;;;;;;;14.68;8.00;;;;;;;;;;5033693;28;20096;-87
2021/09/24 08:53:19;;;;;;;11.88;7.13;;;;;;;;;;5033533;28;20408;-86
2021/09/24 08:55:50;;;;;;;12.07;7.22;;;;;;;;;;5034040;28;20058;-86
2021/09/24 08:58:17;;;;;;;16.38;8.20;;;;;;;;;;5033297;28;20084;-87
2021/09/24 09:00:45;;;;;;;13.70;8.18;;;;;;;;;;5032706;28;20045;-87
2021/09/24 09:06:19;;;;;;;19.10;9.40;;;;;;;;;;5031858;28;20049;-87
2021/09/24 09:08:50;;;;;;;17.27;8.45;;;;;;;;;;5054895;28;20116;-86
2021/09/24 09:11:20;;;;;;;14.30;8.13;;;;;;;;;;5058865;28;20038;-86
2021/09/24 09:13:50;;;;;;;14.80;8.77;;;;;;;;;;5058892;28;20033;-86
2021/09/24 09:16:38;;;;;;;14.15;7.28;;;;;;;;;;5057501;28;20045;-87
2021/09/24 09:19:10;;;;;;;13.55;8.52;;;;;;;;;;5049370;28;20053;-87
2021/09/24 09:21:42;;;;;;;14.38;8.02;;;;;;;;;;5045688;28;20046;-87
2021/09/24 09:24:21;;;;;;;10.90;7.03;;;;;;;;;;5040362;28;20056;-86
2021/09/24 09:26:49;;;;;;;15.88;7.78;;;;;;;;;;5042976;28;20136;-86
2021/09/24 09:29:23;;;;;;;14.57;8.48;;;;;;;;;;5045965;28;20136;-87
2021/09/24 09:32:12;;;;;;;12.98;6.97;;;;;;;;;;5038492;28;20463;-87
2021/09/24 09:34:39;;;;;;;13.43;7.57;;;;;;;;;;5040205;28;20063;-87
2021/09/24 09:37:47;;;;;;;13.30;7.97;;;;;;;;;;5039203;28;20049;-86
2021/09/24 09:40:20;;;;;;;11.30;7.35;;;;;;;;;;5023145;28;20053;-88
2021/09/24 09:42:49;;;;;;;14.85;9.27;;;;;;;;;;5039114;28;20050;-87
2021/09/24 09:45:19;;;;;;;15.05;8.40;;;;;;;;;;5036999;28;20053;-87
2021/09/24 09:48:12;;;;;;;15.90;8.98;;;;;;;;;;5037165;28;20180;-87
2021/09/24 09:50:46;;;;;;;13.63;6.68;;;;;;;;;;5043051;28;20103;-88
2021/09/24 09:53:21;;;;;;;10.55;6.95;;;;;;;;;;5037693;28;20060;-88
2021/09/24 09:56:11;;;;;;;11.48;6.88;;;;;;;;;;5041055;28;20053;-88
2021/09/24 09:58:57;;;;;;;13.73;7.88;;;;;;;;;;5026168;28;20060;-88
2021/09/24 10:01:38;;;;;;;18.35;8.77;;;;;;;;;;5035329;28;20050;-88
2021/09/24 10:04:18;;;;;;;10.52;6.80;;;;;;;;;;5038777;28;20054;-88
2021/09/24 10:06:49;;;;;;;15.10;8.70;;;;;;;;;;5038220;28;20076;-87
2021/09/24 10:09:26;;;;;;;13.45;7.47;;;;;;;;;;5039617;28;20148;-87
2021/09/24 10:12:14;;;;;;;11.07;6.90;;;;;;;;;;5038515;28;20049;-87
2021/09/24 10:14:48;;;;;;;11.88;7.38;;;;;;;;;;5040139;28;20045;-87
2021/09/24 10:17:16;;;;;;;10.45;7.00;;;;;;;;;;5039597;28;20060;-87
2021/09/24 10:19:51;;;;;;;10.90;6.78;;;;;;;;;;5040751;28;20045;-86
2021/09/24 10:22:18;;;;;;;12.85;7.22;;;;;;;;;;5038837;28;20049;-87
2021/09/24 10:24:46;;;;;;;14.48;7.43;;;;;;;;;;5038074;28;20109;-86
2021/09/24 10:27:24;;;;;;;11.52;6.97;;;;;;;;;;5037492;28;20041;-86
2021/09/24 10:29:54;;;;;;;11.80;6.97;;;;;;;;;;5040801;28;20049;-88
2021/09/24 10:32:23;;;;;;;12.75;7.32;;;;;;;;;;5041312;28;20132;-88
2021/09/24 10:34:57;;;;;;;14.85;8.30;;;;;;;;;;5039384;28;20049;-88
2021/09/24 10:37:25;;;;;;;14.30;8.88;;;;;;;;;;5040028;28;20107;-88
2021/09/24 10:40:06;;;;;;;17.08;11.75;;;;;;;;;;5037472;28;20057;-88
2021/09/24 10:42:47;;;;;;;14.25;8.77;;;;;;;;;;5039254;28;20128;-88
2021/09/24 10:45:43;;;;;;;16.08;10.73;;;;;;;;;;5036959;28;20079;-88
2021/09/24 10:48:18;;;;;;;12.05;7.93;;;;;;;;;;5038283;28;20072;-88
2021/09/24 10:51:07;;;;;;;11.63;7.43;;;;;;;;;;5038808;28;20045;-88
2021/09/24 10:53:55;;;;;;;12.40;7.82;;;;;;;;;;5036154;28;20057;-88
2021/09/24 10:56:29;;;;;;;11.45;7.57;;;;;;;;;;5033287;28;20056;-88
2021/09/24 10:59:20;;;;;;;12.50;7.45;;;;;;;;;;5037263;28;20049;-88
2021/09/24 11:01:47;;;;;;;10.60;6.70;;;;;;;;;;5038766;28;20049;-88
2021/09/24 11:04:15;;;;;;;12.73;7.57;;;;;;;;;;5036098;28;20111;-88
2021/09/24 11:06:48;;;;;;;12.43;7.20;;;;;;;;;;5039714;28;20049;-88
2021/09/24 11:09:16;;;;;;;13.68;7.60;;;;;;;;;;5047708;28;20053;-88
2021/09/24 11:11:46;;;;;;;13.02;7.70;;;;;;;;;;5056533;28;20029;-88
2021/09/24 11:14:27;;;;;;;12.00;7.65;;;;;;;;;;5057186;28;20033;-88
2021/09/24 11:17:06;;;;;;;13.30;7.75;;;;;;;;;;5057016;28;20041;-88
2021/09/24 11:19:41;;;;;;;12.15;8.10;;;;;;;;;;5056828;28;20045;-89
2021/09/24 11:22:23;;;;;;;12.23;7.28;;;;;;;;;;5056068;28;20045;-88
2021/09/24 11:25:11;;;;;;;11.25;6.82;;;;;;;;;;5057449;28;20063;-88
2021/09/24 11:27:40;;;;;;;10.80;6.93;;;;;;;;;;5057255;28;20053;-89
2021/09/24 11:30:31;;;;;;;13.07;7.37;;;;;;;;;;5056012;28;20069;-87
2021/09/24 11:33:00;;;;;;;10.13;6.45;;;;;;;;;;5056837;28;20065;-86
2021/09/24 11:35:41;;;;;;;13.23;7.72;;;;;;;;;;5055973;28;20041;-87
2021/09/24 11:38:19;;;;;;;12.10;7.45;;;;;;;;;;5056483;28;20029;-87
2021/09/24 11:40:52;;;;;;;11.65;6.93;;;;;;;;;;5054267;28;20067;-86
2021/09/24 11:43:23;;;;;;;12.73;7.18;;;;;;;;;;5056341;28;20085;-85
2021/09/24 11:45:55;;;;;;;10.63;7.43;;;;;;;;;;5054711;28;20049;-86
2021/09/24 11:48:35;;;;;;;12.35;8.20;;;;;;;;;;5057152;28;20042;-84
2021/09/24 11:51:18;;;;;;;13.68;8.07;;;;;;;;;;5054608;28;20068;-86
2021/09/24 11:53:47;;;;;;;12.68;8.48;;;;;;;;;;5056765;28;20041;-87
2021/09/24 11:56:18;;;;;;;10.70;6.90;;;;;;;;;;5042512;28;20038;-86
2021/09/24 11:58:45;;;;;;;12.55;7.28;;;;;;;;;;5036449;28;20050;-86
2021/09/24 12:01:23;;;;;;;12.57;6.95;;;;;;;;;;5034624;28;20046;-87
2021/09/24 12:03:50;;;;;;;12.73;8.60;;;;;;;;;;5036944;28;20037;-86
2021/09/24 12:06:19;;;;;;;12.57;8.77;;;;;;;;;;5035545;28;20124;-85
2021/09/24 12:08:48;;;;;;;11.63;7.25;;;;;;;;;;5035539;28;20064;-85
2021/09/24 12:11:19;;;;;;;13.60;7.25;;;;;;;;;;5037138;28;20029;-85
2021/09/24 12:13:49;;;;;;;11.63;7.38;;;;;;;;;;5037109;28;20042;-84
2021/09/24 12:16:19;;;;;;;;;;;;;;;;;;5037874;28;20045;-85
2021/09/24 12:18:51;;;;;;;13.95;8.95;;;;;;;;;;5036746;28;19909;-84
2021/09/24 12:21:20;;;;;;;9.77;7.35;;;;;;;;;;5036951;28;20045;-85
2021/09/24 12:23:50;;;;;;;10.70;6.93;;;;;;;;;;5036666;28;20076;-87
2021/09/24 12:26:17;;;;;;;11.73;7.72;;;;;;;;;;5035760;28;20046;-87
2021/09/24 12:28:59;;;;;;;12.27;7.10;;;;;;;;;;5035391;28;20038;-88
2021/09/24 12:31:42;;;;;;;12.70;7.22;;;;;;;;;;5031447;28;20137;-88
2021/09/24 12:34:11;;;;;;;10.55;7.22;;;;;;;;;;5024210;28;20142;-88
2021/09/24 12:36:50;;;;;;;11.02;7.65;;;;;;;;;;5025627;28;20445;-88
2021/09/24 12:39:22;;;;;;;12.35;7.15;;;;;;;;;;5021989;28;20064;-87
2021/09/24 12:41:50;;;;;;;11.30;7.60;;;;;;;;;;5019144;28;20046;-87
2021/09/24 12:44:19;;;;;;;14.48;7.03;;;;;;;;;;5026760;28;20054;-87
2021/09/24 12:46:49;;;;;;;10.02;7.13;;;;;;;;;;5026006;28;20054;-88
2021/09/24 12:49:17;;;;;;;10.68;7.00;;;;;;;;;;5028393;28;20129;-88
2021/09/24 12:51:45;;;;;;;12.13;7.78;;;;;;;;;;5026399;28;20065;-87
2021/09/24 12:54:12;;;;;;;10.85;6.82;;;;;;;;;;5021755;28;20050;-87
2021/09/24 12:56:52;;;;;;;11.70;7.25;;;;;;;;;;5026866;28;20050;-87
2021/09/24 12:59:20;;;;;;;12.88;7.55;;;;;;;;;;5020994;28;20141;-86
2021/09/24 13:01:52;;;;;;;9.88;6.65;;;;;;;;;;5021473;28;20334;-87
2021/09/24 13:04:24;;;;;;;10.82;7.05;;;;;;;;;;5021601;28;20507;-87
2021/09/24 13:06:51;;;;;;;11.52;8.02;;;;;;;;;;5019897;28;20556;-87
2021/09/24 13:09:19;;;;;;;13.13;7.72;;;;;;;;;;5017594;28;20045;-87
2021/09/24 13:11:48;;;;;;;10.68;7.93;;;;;;;;;;5018653;28;20441;-87
2021/09/24 13:14:16;;;;;;;12.43;8.05;;;;;;;;;;5018202;28;20058;-87
2021/09/24 13:16:44;;;;;;;11.10;6.78;;;;;;;;;;5018113;28;20046;-87
2021/09/24 13:19:12;;;;;;;11.18;7.43;;;;;;;;;;5017336;28;20060;-87
2021/09/24 13:21:40;;;;;;;11.73;7.05;;;;;;;;;;5017890;28;20446;-87
2021/09/24 13:24:07;;;;;;;11.60;6.50;;;;;;;;;;5016633;28;20054;-88
2021/09/24 13:26:35;;;;;;;14.18;8.38;;;;;;;;;;5021676;28;20045;-88
2021/09/24 13:29:03;;;;;;;11.05;7.97;;;;;;;;;;5018636;28;20042;-88
2021/09/24 13:31:31;;;;;;;14.40;10.13;;;;;;;;;;5020206;28;20456;-87
2021/09/24 13:33:58;;;;;;;11.43;8.15;;;;;;;;;;5022308;28;20517;-88
2021/09/24 13:36:31;;;;;;;8.73;6.47;;;;;;;;;;5023865;28;20050;-88
2021/09/24 13:38:58;;;;;;;10.82;7.53;;;;;;;;;;5005688;28;20089;-88
2021/09/24 13:41:25;;;;;;;11.07;7.38;;;;;;;;;;5001067;28;20054;-89
2021/09/24 13:43:52;;;;;;;12.32;7.88;;;;;;;;;;5000055;28;20077;-89
2021/09/24 13:46:21;;;;;;;13.13;8.63;;;;;;;;;;5003542;28;20511;-87
2021/09/24 13:48:49;;;;;;;11.00;7.00;;;;;;;;;;5004241;28;20501;-87
2021/09/24 13:51:16;;;;;;;10.55;6.72;;;;;;;;;;5002444;28;20086;-87
2021/09/24 13:53:44;;;;;;;9.82;6.45;;;;;;;;;;5003653;28;20052;-87
2021/09/24 13:56:13;;;;;;;9.73;6.70;;;;;;;;;;5006093;28;20509;-88
2021/09/24 13:58:40;;;;;;;8.75;6.30;;;;;;;;;;5002711;28;20050;-87
2021/09/24 14:01:09;;;;;;;9.68;6.45;;;;;;;;;;5027078;23;20561;-66
2021/09/24 14:03:42;;;;;;;11.90;7.20;;;;;;;;;;5014016;28;20046;-67
2021/09/24 14:06:09;;;;;;;9.60;7.25;;;;;;;;;;5014041;28;20050;-66
2021/09/24 14:08:36;;;;;;;11.10;7.65;;;;;;;;;;5013956;28;20566;-67
2021/09/24 14:11:05;;;;;;;9.80;7.53;;;;;;;;;;5014100;28;20136;-67
2021/09/24 14:13:32;;;;;;;9.60;6.82;;;;;;;;;;5013407;28;20138;-67
2021/09/24 14:16:03;;;;;;;17.05;10.82;;;;;;;;;;5013980;28;20045;-67
2021/09/24 14:18:32;;;;;;;13.75;8.77;;;;;;;;;;5013750;28;20054;-67
2021/09/24 14:21:00;;;;;;;9.50;7.28;;;;;;;;;;5013927;28;20148;-67
2021/09/24 14:23:27;;;;;;;9.52;7.53;;;;;;;;;;5013643;28;20045;-67
2021/09/24 14:25:54;;;;;;;10.45;7.45;;;;;;;;;;5013883;28;20052;-67
2021/09/24 14:28:22;;;;;;;10.60;7.82;;;;;;;;;;5013507;28;20060;-67
2021/09/24 14:30:49;;;;;;;10.65;7.78;;;;;;;;;;5013664;28;20494;-67
2021/09/24 14:33:16;;;;;;;10.15;7.80;;;;;;;;;;5013092;28;20049;-67
2021/09/24 14:35:45;;;;;;;11.20;7.50;;;;;;;;;;5013521;28;20042;-67
2021/09/24 14:38:12;;;;;;;10.82;7.55;;;;;;;;;;5013423;28;20133;-67
2021/09/24 14:40:40;;;;;;;10.50;7.15;;;;;;;;;;5013229;28;20136;-67